Terminal Aerodrome Forecast
Issued by NWS

Home | Current Version | Previous Version | Text Only | Print | Product List | Glossary On
Versions: 1 2 3 4 5 6 7 8 9 10 11 12 13
928
FTUS46 KMTR 090520
TAFSNS
TAF
KSNS 090520Z 0906/1006 11003KT P6SM SKC
     FM091000 11010KT P6SM SKC
     FM092200 31008KT P6SM SKC
     FM100400 VRB03KT P6SM SKC=

USA.gov is the U.S. government's official web portal to all federal, state and local government web resources and services.